Time;durP1;ratioP1;P1;durP2;ratioP2;P2;SDS_P1;SDS_P2;PMS_P1;PMS_P2;Temp;Humidity;BMP_temperature;BMP_pressure;BME280_temperature;BME280_humidity;BME280_pressure;Samples;Min_cycle;Max_cycle;Signal;HPM_P1;HPM_P2
2023/05/19 00:01:06;;;;;;;;;;;11.10;67.30;;;;;;5074337;28;19913;-34
2023/05/19 00:03:32;;;;;;;;;;;11.10;67.30;;;;;;5074120;28;19919;-36
2023/05/19 00:06:00;;;;;;;;;;;11.10;67.30;;;;;;5072829;28;19938;-34
2023/05/19 00:08:29;;;;;;;;;;;11.00;67.50;;;;;;5074095;28;19919;-34
2023/05/19 00:10:54;;;;;;;;;;;11.00;67.60;;;;;;5074028;28;19971;-34
2023/05/19 00:13:20;;;;;;;;;;;11.00;67.70;;;;;;5074035;28;19960;-35
2023/05/19 00:15:46;;;;;;;;;;;11.00;67.90;;;;;;5073943;28;19912;-34
2023/05/19 00:18:12;;;;;;;;;;;11.00;68.20;;;;;;5073890;28;19999;-35
2023/05/19 00:20:38;;;;;;;;;;;11.00;68.40;;;;;;5073998;28;19919;-34
2023/05/19 00:23:04;;;;;;;;;;;10.90;68.30;;;;;;5073839;28;20002;-34
2023/05/19 00:25:29;;;;;;;;;;;10.80;68.30;;;;;;5073729;28;20372;-34
2023/05/19 00:27:54;;;;;;;;;;;10.80;68.40;;;;;;5073775;28;19912;-35
2023/05/19 00:30:21;;;;;;;;;;;10.80;68.50;;;;;;5073309;28;19917;-35
2023/05/19 00:32:47;;;;;;;;;;;10.80;68.80;;;;;;5073794;28;20324;-35
2023/05/19 00:35:13;;;;;;;;;;;10.70;69.30;;;;;;5073562;28;20004;-35
2023/05/19 00:37:38;;;;;;;;;;;10.70;69.20;;;;;;5073645;28;20391;-34
2023/05/19 00:40:05;;;;;;;;;;;10.70;69.70;;;;;;5073634;28;19999;-35
2023/05/19 00:42:31;;;;;;;;;;;10.60;69.50;;;;;;5073544;28;19913;-35
2023/05/19 00:44:57;;;;;;;;;;;10.60;69.60;;;;;;5073428;28;19920;-34
2023/05/19 00:47:22;;;;;;;;;;;10.60;69.60;;;;;;5073358;28;19913;-35
2023/05/19 00:49:47;;;;;;;;;;;10.60;69.50;;;;;;5073293;28;19913;-34
2023/05/19 00:52:13;;;;;;;;;;;10.60;69.50;;;;;;5073269;28;19920;-35
2023/05/19 00:54:39;;;;;;;;;;;10.50;69.60;;;;;;5071938;28;20015;-34
2023/05/19 00:57:04;;;;;;;;;;;10.50;69.60;;;;;;5073196;28;19912;-34
2023/05/19 00:59:30;;;;;;;;;;;10.50;69.80;;;;;;5073260;28;20009;-35
2023/05/19 01:01:56;;;;;;;;;;;10.50;70.00;;;;;;5073281;28;19919;-34
2023/05/19 01:04:24;;;;;;;;;;;10.50;70.20;;;;;;5072514;28;20236;-35
2023/05/19 01:06:53;;;;;;;;;;;10.50;70.10;;;;;;5072994;28;19919;-35
2023/05/19 01:09:22;;;;;;;;;;;10.40;70.20;;;;;;5073096;28;19944;-35
2023/05/19 01:11:51;;;;;;;;;;;10.40;70.20;;;;;;5071720;28;19967;-35
2023/05/19 01:14:17;;;;;;;;;;;10.40;70.50;;;;;;5072944;28;20372;-35
2023/05/19 01:16:47;;;;;;;;;;;10.40;70.50;;;;;;5073153;28;19962;-36
2023/05/19 01:19:24;;;;;;;;;;;10.40;70.60;;;;;;5073090;28;19996;-35
2023/05/19 01:22:11;;;;;;;;;;;10.40;70.80;;;;;;5072771;28;20395;-35
2023/05/19 01:24:37;;;;;;;;;;;10.30;70.60;;;;;;5071318;28;19985;-35
2023/05/19 01:27:03;;;;;;;;;;;10.30;70.80;;;;;;5071559;28;19919;-35
2023/05/19 01:29:31;;;;;;;;;;;10.30;70.90;;;;;;5071429;28;19913;-34
2023/05/19 01:31:59;;;;;;;;;;;10.30;70.90;;;;;;5072479;28;19924;-34
2023/05/19 01:34:25;;;;;;;;;;;10.30;71.20;;;;;;5072660;28;19919;-35
2023/05/19 01:36:51;;;;;;;;;;;10.30;71.10;;;;;;5072649;28;20435;-35
2023/05/19 01:39:18;;;;;;;;;;;10.30;71.10;;;;;;5072831;28;19917;-33
2023/05/19 01:41:44;;;;;;;;;;;10.30;71.20;;;;;;5072701;28;19912;-35
2023/05/19 01:44:10;;;;;;;;;;;10.20;71.20;;;;;;5072376;28;20007;-34
2023/05/19 01:46:36;;;;;;;;;;;10.20;71.20;;;;;;5072570;28;19951;-35
2023/05/19 01:49:02;;;;;;;;;;;10.20;71.40;;;;;;5072481;28;19919;-35
2023/05/19 01:51:28;;;;;;;;;;;10.20;71.40;;;;;;5072614;28;19912;-35
2023/05/19 01:53:54;;;;;;;;;;;10.20;71.60;;;;;;5072444;28;19913;-35
2023/05/19 01:56:24;;;;;;;;;;;10.20;71.60;;;;;;5072450;28;19913;-36
2023/05/19 01:58:58;;;;;;;;;;;10.10;72.00;;;;;;5072465;28;19912;-36
2023/05/19 02:01:30;;;;;;;;;;;10.10;72.00;;;;;;5072176;28;20297;-35
2023/05/19 02:03:55;;;;;;;;;;;10.00;72.00;;;;;;5072233;28;19912;-35
2023/05/19 02:06:30;;;;;;;;;;;10.00;72.10;;;;;;5072116;28;20426;-35
2023/05/19 02:09:03;;;;;;;;;;;10.00;72.10;;;;;;5072308;28;19912;-33
2023/05/19 02:11:34;;;;;;;;;;;9.90;72.10;;;;;;5072088;28;19920;-35
2023/05/19 02:14:01;;;;;;;;;;;9.90;72.10;;;;;;5072147;28;20387;-34
2023/05/19 02:16:27;;;;;;;;;;;9.90;72.30;;;;;;5072158;28;19959;-34
2023/05/19 02:18:54;;;;;;;;;;;9.90;72.40;;;;;;5070767;28;19913;-35
2023/05/19 02:21:19;;;;;;;;;;;9.80;72.70;;;;;;5070709;28;19954;-35
2023/05/19 02:23:45;;;;;;;;;;;9.80;72.70;;;;;;5072139;28;20341;-35
2023/05/19 02:26:11;;;;;;;;;;;9.80;72.70;;;;;;5071979;28;19917;-35
2023/05/19 02:28:36;;;;;;;;;;;9.80;72.70;;;;;;5072056;28;20299;-35
2023/05/19 02:31:04;;;;;;;;;;;9.80;72.70;;;;;;5070630;28;19920;-35
2023/05/19 02:33:30;;;;;;;;;;;9.70;72.80;;;;;;5071915;28;19912;-35
2023/05/19 02:35:56;;;;;;;;;;;9.70;72.80;;;;;;5072075;28;19912;-34
2023/05/19 02:38:21;;;;;;;;;;;9.70;72.80;;;;;;5071936;28;20016;-35
2023/05/19 02:40:47;;;;;;;;;;;9.70;73.00;;;;;;5071857;28;19971;-34
2023/05/19 02:43:12;;;;;;;;;;;9.70;73.10;;;;;;5071916;28;19912;-35
2023/05/19 02:45:38;;;;;;;;;;;9.70;73.10;;;;;;5071915;28;19917;-35
2023/05/19 02:48:03;;;;;;;;;;;9.60;73.40;;;;;;5071878;28;20007;-35
2023/05/19 02:50:29;;;;;;;;;;;9.60;73.40;;;;;;5071839;28;20322;-36
2023/05/19 02:52:54;;;;;;;;;;;9.60;73.80;;;;;;5071789;28;19962;-36
2023/05/19 02:55:20;;;;;;;;;;;9.50;73.90;;;;;;5071757;28;19913;-34
2023/05/19 02:57:45;;;;;;;;;;;9.50;73.90;;;;;;5071729;28;20311;-35
2023/05/19 03:00:11;;;;;;;;;;;9.50;74.00;;;;;;5071618;28;19920;-35
2023/05/19 03:02:36;;;;;;;;;;;9.50;74.10;;;;;;5071759;28;20437;-35
2023/05/19 03:05:03;;;;;;;;;;;9.40;74.20;;;;;;5071574;28;19969;-35
2023/05/19 03:07:28;;;;;;;;;;;9.40;74.40;;;;;;5071698;28;19920;-35
2023/05/19 03:09:54;;;;;;;;;;;9.40;74.50;;;;;;5071675;28;19917;-35
2023/05/19 03:12:20;;;;;;;;;;;9.40;74.80;;;;;;5071507;28;20030;-35
2023/05/19 03:14:46;;;;;;;;;;;9.40;74.70;;;;;;5071625;28;20002;-35
2023/05/19 03:17:11;;;;;;;;;;;9.30;74.80;;;;;;5071549;28;19912;-36
2023/05/19 03:19:37;;;;;;;;;;;9.30;74.80;;;;;;5071612;28;19923;-33
2023/05/19 03:22:03;;;;;;;;;;;9.30;74.90;;;;;;5071511;28;19919;-36
2023/05/19 03:24:28;;;;;;;;;;;9.30;74.90;;;;;;5071444;28;20279;-34
2023/05/19 03:26:54;;;;;;;;;;;9.30;74.90;;;;;;5071610;28;19951;-36
2023/05/19 03:29:20;;;;;;;;;;;9.30;75.00;;;;;;5074830;28;19952;-34
2023/05/19 03:31:45;;;;;;;;;;;9.30;75.00;;;;;;5074945;28;19927;-35
2023/05/19 03:34:11;;;;;;;;;;;9.30;75.20;;;;;;5074904;28;19920;-36
2023/05/19 03:36:38;;;;;;;;;;;9.30;75.20;;;;;;5075032;28;19923;-35
2023/05/19 03:39:04;;;;;;;;;;;9.30;75.20;;;;;;5074882;28;19919;-34
2023/05/19 03:41:29;;;;;;;;;;;9.30;75.20;;;;;;5074629;28;19912;-35
2023/05/19 03:43:55;;;;;;;;;;;9.30;75.30;;;;;;5074947;28;20283;-35
2023/05/19 03:46:20;;;;;;;;;;;9.20;75.20;;;;;;5074824;28;19916;-35
2023/05/19 03:48:45;;;;;;;;;;;9.20;75.50;;;;;;5073466;28;19919;-35
2023/05/19 03:51:11;;;;;;;;;;;9.20;75.60;;;;;;5074892;28;19913;-35
2023/05/19 03:53:36;;;;;;;;;;;9.20;75.80;;;;;;5074723;28;20373;-34
2023/05/19 03:56:02;;;;;;;;;;;9.20;75.80;;;;;;5074519;28;19913;-35
2023/05/19 03:58:28;;;;;;;;;;;9.20;75.80;;;;;;5074399;28;19919;-34
2023/05/19 04:00:54;;;;;;;;;;;9.20;75.80;;;;;;5074534;28;19978;-35
2023/05/19 04:03:20;;;;;;;;;;;9.20;75.80;;;;;;5074499;28;19912;-34
2023/05/19 04:05:45;;;;;;;;;;;9.30;75.80;;;;;;5074423;28;20028;-35
2023/05/19 04:08:11;;;;;;;;;;;9.30;75.60;;;;;;5074353;28;19999;-35
2023/05/19 04:10:36;;;;;;;;;;;9.30;75.60;;;;;;5074267;28;19917;-35
2023/05/19 04:13:02;;;;;;;;;;;9.30;75.80;;;;;;5074217;28;19986;-35
2023/05/19 04:15:27;;;;;;;;;;;9.40;75.70;;;;;;5074180;28;20330;-35
2023/05/19 04:17:53;;;;;;;;;;;9.40;75.60;;;;;;5074096;28;20387;-35
2023/05/19 04:20:18;;;;;;;;;;;9.40;75.60;;;;;;5074178;28;19919;-35
2023/05/19 04:22:44;;;;;;;;;;;9.40;75.50;;;;;;5074101;28;19913;-35
2023/05/19 04:25:09;;;;;;;;;;;9.40;75.60;;;;;;5073875;28;20364;-35
2023/05/19 04:27:38;;;;;;;;;;;9.40;75.40;;;;;;5074092;28;19918;-36
2023/05/19 04:30:04;;;;;;;;;;;9.40;75.40;;;;;;5073676;28;20007;-34
2023/05/19 04:32:29;;;;;;;;;;;9.40;75.30;;;;;;5073857;28;19962;-35
2023/05/19 04:34:57;;;;;;;;;;;9.50;75.30;;;;;;5072566;28;20415;-35
2023/05/19 04:37:24;;;;;;;;;;;9.50;75.20;;;;;;5073694;28;19927;-35
2023/05/19 04:39:51;;;;;;;;;;;9.50;75.10;;;;;;5072615;28;19912;-35
2023/05/19 04:42:18;;;;;;;;;;;9.60;75.10;;;;;;5073702;28;19912;-35
2023/05/19 04:44:44;;;;;;;;;;;9.60;75.00;;;;;;5073505;28;20007;-35
2023/05/19 04:47:09;;;;;;;;;;;9.60;74.90;;;;;;5073419;28;19954;-35
2023/05/19 04:49:38;;;;;;;;;;;9.70;75.00;;;;;;5073625;28;19931;-36
2023/05/19 04:52:09;;;;;;;;;;;9.70;74.90;;;;;;5073558;28;19912;-34
2023/05/19 04:54:35;;;;;;;;;;;9.70;74.90;;;;;;5073515;28;20001;-37
2023/05/19 04:57:01;;;;;;;;;;;9.70;74.90;;;;;;5073297;28;19924;-35
2023/05/19 04:59:26;;;;;;;;;;;9.70;75.50;;;;;;5073324;28;19913;-36
2023/05/19 05:01:52;;;;;;;;;;;9.80;74.90;;;;;;5073177;28;19963;-37
2023/05/19 05:04:18;;;;;;;;;;;9.80;74.90;;;;;;5073028;28;19912;-35
2023/05/19 05:06:46;;;;;;;;;;;9.80;74.80;;;;;;5073195;28;19913;-36
2023/05/19 05:09:13;;;;;;;;;;;9.80;74.80;;;;;;5072947;28;19999;-35
2023/05/19 05:11:38;;;;;;;;;;;9.90;74.80;;;;;;5073007;28;19913;-35
2023/05/19 05:14:04;;;;;;;;;;;10.00;74.70;;;;;;5073307;28;19934;-34
2023/05/19 05:16:30;;;;;;;;;;;10.00;74.60;;;;;;5073249;28;19990;-35
2023/05/19 05:18:56;;;;;;;;;;;10.00;74.60;;;;;;5073008;28;19912;-34
2023/05/19 05:21:22;;;;;;;;;;;10.00;74.40;;;;;;5072874;28;19920;-39
2023/05/19 05:23:49;;;;;;;;;;;10.10;74.40;;;;;;5072821;28;19912;-34
2023/05/19 05:26:18;;;;;;;;;;;10.10;74.30;;;;;;5072793;28;19917;-33
2023/05/19 05:28:44;;;;;;;;;;;10.20;74.20;;;;;;5072782;28;19912;-36
2023/05/19 05:31:09;;;;;;;;;;;10.20;74.20;;;;;;5071297;28;19970;-33
2023/05/19 05:33:35;;;;;;;;;;;10.30;74.20;;;;;;5072647;28;19919;-36
2023/05/19 05:36:01;;;;;;;;;;;10.30;74.20;;;;;;5072602;28;19913;-33
2023/05/19 05:38:26;;;;;;;;;;;10.40;74.00;;;;;;5072762;28;19913;-35
2023/05/19 05:40:51;;;;;;;;;;;10.50;73.90;;;;;;5072533;28;19920;-32
2023/05/19 05:43:17;;;;;;;;;;;10.50;73.70;;;;;;5072536;28;19985;-33
2023/05/19 05:45:42;;;;;;;;;;;10.60;73.60;;;;;;5072450;28;19920;-34
2023/05/19 05:48:08;;;;;;;;;;;10.70;73.60;;;;;;5072448;28;20364;-33
2023/05/19 05:50:34;;;;;;;;;;;10.70;73.40;;;;;;5072094;28;19913;-34
2023/05/19 05:53:00;;;;;;;;;;;10.80;73.30;;;;;;5072466;28;20442;-34
2023/05/19 05:55:26;;;;;;;;;;;10.90;73.20;;;;;;5072479;28;19913;-35
2023/05/19 05:57:51;;;;;;;;;;;10.90;73.00;;;;;;5072251;28;19913;-34
2023/05/19 06:00:17;;;;;;;;;;;11.00;72.80;;;;;;5072271;28;19958;-33
2023/05/19 06:02:45;;;;;;;;;;;11.10;72.70;;;;;;5072318;28;20206;-34
2023/05/19 06:05:11;;;;;;;;;;;11.10;72.60;;;;;;5072276;28;19920;-35
2023/05/19 06:07:37;;;;;;;;;;;11.20;72.40;;;;;;5072209;28;20074;-35
2023/05/19 06:10:03;;;;;;;;;;;11.20;72.20;;;;;;5072121;28;19920;-35
2023/05/19 06:12:28;;;;;;;;;;;11.40;72.20;;;;;;5072281;28;19912;-35
2023/05/19 06:14:54;;;;;;;;;;;11.40;72.00;;;;;;5072281;28;19913;-35
2023/05/19 06:17:19;;;;;;;;;;;11.50;71.90;;;;;;5072043;28;20327;-35
2023/05/19 06:19:45;;;;;;;;;;;11.60;71.70;;;;;;5072145;28;19912;-34
2023/05/19 06:22:10;;;;;;;;;;;11.60;71.60;;;;;;5072049;28;19913;-35
2023/05/19 06:24:36;;;;;;;;;;;11.70;71.40;;;;;;5072050;28;19923;-35
2023/05/19 06:27:01;;;;;;;;;;;11.80;71.30;;;;;;5072010;28;19912;-34
2023/05/19 06:29:27;;;;;;;;;;;11.90;71.10;;;;;;5072186;28;19912;-35
2023/05/19 06:31:52;;;;;;;;;;;12.00;70.90;;;;;;5071732;28;19921;-34
2023/05/19 06:34:18;;;;;;;;;;;12.00;70.70;;;;;;5071960;28;19913;-34
2023/05/19 06:36:43;;;;;;;;;;;12.10;70.50;;;;;;5071955;28;20011;-35
2023/05/19 06:39:09;;;;;;;;;;;12.20;70.20;;;;;;5071962;28;20287;-34
2023/05/19 06:41:34;;;;;;;;;;;12.30;70.00;;;;;;5072087;28;20007;-35
2023/05/19 06:44:00;;;;;;;;;;;12.40;69.90;;;;;;5071975;28;19920;-34
2023/05/19 06:46:25;;;;;;;;;;;12.40;69.70;;;;;;5071380;28;19920;-33
2023/05/19 06:48:51;;;;;;;;;;;12.50;69.60;;;;;;5071564;28;20288;-35
2023/05/19 06:51:20;;;;;;;;;;;12.60;69.50;;;;;;5071692;28;19917;-36
2023/05/19 06:53:46;;;;;;;;;;;12.60;69.30;;;;;;5071721;28;19912;-36
2023/05/19 06:56:12;;;;;;;;;;;12.70;69.00;;;;;;5071902;28;20006;-35
2023/05/19 06:58:38;;;;;;;;;;;12.80;68.80;;;;;;5071480;28;20412;-34
2023/05/19 07:01:03;;;;;;;;;;;12.90;68.50;;;;;;5071420;28;20263;-34
2023/05/19 07:03:29;;;;;;;;;;;13.00;67.90;;;;;;5073674;28;19998;-33
2023/05/19 07:05:55;;;;;;;;;;;13.00;67.90;;;;;;5075124;28;19916;-35
2023/05/19 07:08:20;;;;;;;;;;;13.10;67.80;;;;;;5075088;28;20003;-33
2023/05/19 07:10:46;;;;;;;;;;;13.20;67.50;;;;;;5075127;28;19912;-34
2023/05/19 07:13:11;;;;;;;;;;;13.30;67.50;;;;;;5075013;28;20007;-32
2023/05/19 07:15:37;;;;;;;;;;;13.40;67.40;;;;;;5075196;28;20333;-34
2023/05/19 07:18:02;;;;;;;;;;;13.50;67.20;;;;;;5075131;28;19934;-34
2023/05/19 07:20:28;;;;;;;;;;;13.60;67.00;;;;;;5075037;28;20030;-36
2023/05/19 07:22:53;;;;;;;;;;;13.70;66.50;;;;;;5074952;28;19919;-34
2023/05/19 07:25:19;;;;;;;;;;;13.70;66.10;;;;;;5074752;28;19963;-35
2023/05/19 07:27:45;;;;;;;;;;;13.80;66.20;;;;;;5074625;28;19959;-34
2023/05/19 07:30:10;;;;;;;;;;;13.80;66.20;;;;;;5074819;28;20364;-34
2023/05/19 07:32:36;;;;;;;;;;;13.80;66.20;;;;;;5074569;28;19920;-34
2023/05/19 07:35:01;;;;;;;;;;;13.90;66.10;;;;;;5074684;28;19912;-34
2023/05/19 07:37:27;;;;;;;;;;;13.90;66.10;;;;;;5074679;28;19970;-34
2023/05/19 07:39:52;;;;;;;;;;;13.90;66.00;;;;;;5074428;28;19912;-33
2023/05/19 07:42:18;;;;;;;;;;;14.00;66.70;;;;;;5073558;28;20344;-34
2023/05/19 07:44:43;;;;;;;;;;;14.00;65.60;;;;;;5074327;28;19916;-34
2023/05/19 07:47:09;;;;;;;;;;;14.10;65.70;;;;;;5074346;28;20455;-34
2023/05/19 07:49:34;;;;;;;;;;;14.20;65.40;;;;;;5074419;28;20288;-34
2023/05/19 07:52:00;;;;;;;;;;;14.30;65.40;;;;;;5074387;28;19961;-34
2023/05/19 07:54:25;;;;;;;;;;;14.40;65.20;;;;;;5073051;28;19913;-34
2023/05/19 07:56:51;;;;;;;;;;;14.50;65.10;;;;;;5072760;28;19913;-34
2023/05/19 07:59:16;;;;;;;;;;;14.60;63.80;;;;;;5074506;28;20380;-35
2023/05/19 08:01:42;;;;;;;;;;;14.70;63.60;;;;;;5074032;28;20224;-33
2023/05/19 08:04:07;;;;;;;;;;;14.80;63.30;;;;;;5074023;28;19916;-35
2023/05/19 08:06:34;;;;;;;;;;;14.90;63.50;;;;;;5074131;28;20364;-35
2023/05/19 08:08:59;;;;;;;;;;;15.00;63.50;;;;;;5074282;28;20011;-35
2023/05/19 08:11:25;;;;;;;;;;;15.10;63.40;;;;;;5073719;28;19981;-35
2023/05/19 08:13:51;;;;;;;;;;;15.20;62.00;;;;;;5073582;28;19940;-34
2023/05/19 08:16:16;;;;;;;;;;;15.30;61.50;;;;;;5073933;28;19916;-34
2023/05/19 08:18:42;;;;;;;;;;;15.30;62.20;;;;;;5073866;28;19955;-34
2023/05/19 08:21:07;;;;;;;;;;;15.40;62.20;;;;;;5073793;28;19912;-34
2023/05/19 08:23:33;;;;;;;;;;;15.50;61.90;;;;;;5073736;28;19912;-35
2023/05/19 08:25:58;;;;;;;;;;;15.60;61.90;;;;;;5073700;28;20391;-34
2023/05/19 08:28:24;;;;;;;;;;;15.70;61.90;;;;;;5073674;28;20029;-34
2023/05/19 08:30:51;;;;;;;;;;;15.70;61.10;;;;;;5073529;28;19927;-35
2023/05/19 08:33:16;;;;;;;;;;;15.80;61.30;;;;;;5073575;28;19912;-35
2023/05/19 08:35:42;;;;;;;;;;;15.80;61.40;;;;;;5073507;28;20334;-34
2023/05/19 08:38:07;;;;;;;;;;;15.90;61.30;;;;;;5073439;28;19916;-35
2023/05/19 08:40:33;;;;;;;;;;;16.00;61.30;;;;;;5073699;28;20360;-34
2023/05/19 08:42:59;;;;;;;;;;;16.10;61.50;;;;;;5073391;28;19913;-34
2023/05/19 08:45:25;;;;;;;;;;;16.20;61.30;;;;;;5073424;28;20046;-34
2023/05/19 08:47:51;;;;;;;;;;;16.20;60.80;;;;;;5073560;28;20427;-34
2023/05/19 08:50:20;;;;;;;;;;;16.20;60.70;;;;;;5073376;28;20007;-35
2023/05/19 08:53:00;;;;;;;;;;;16.30;60.50;;;;;;5073159;28;19908;-35
2023/05/19 08:55:26;;;;;;;;;;;16.30;60.50;;;;;;5073402;28;20273;-32
2023/05/19 08:57:52;;;;;;;;;;;16.40;60.20;;;;;;5072996;28;20006;-35
2023/05/19 09:00:19;;;;;;;;;;;16.50;59.80;;;;;;5072966;28;20009;-35
2023/05/19 09:02:46;;;;;;;;;;;16.50;59.60;;;;;;5072913;28;19912;-34
2023/05/19 09:05:12;;;;;;;;;;;16.50;59.40;;;;;;5072830;28;19916;-35
2023/05/19 09:07:41;;;;;;;;;;;16.50;59.10;;;;;;5072878;28;19975;-36
2023/05/19 09:10:07;;;;;;;;;;;16.50;59.10;;;;;;5072937;28;19913;-35
2023/05/19 09:12:33;;;;;;;;;;;16.60;59.20;;;;;;5072776;28;19912;-35
2023/05/19 09:14:59;;;;;;;;;;;16.70;59.30;;;;;;5073050;28;19912;-33
2023/05/19 09:17:24;;;;;;;;;;;16.70;59.10;;;;;;5072618;28;19935;-35
2023/05/19 09:19:50;;;;;;;;;;;16.80;58.50;;;;;;5072625;28;19912;-35
2023/05/19 09:22:17;;;;;;;;;;;16.90;58.20;;;;;;5072508;28;20372;-35
2023/05/19 09:24:43;;;;;;;;;;;16.90;58.10;;;;;;5070899;28;19927;-34
2023/05/19 09:27:09;;;;;;;;;;;17.00;58.00;;;;;;5072139;28;19912;-34
2023/05/19 09:29:34;;;;;;;;;;;17.10;58.30;;;;;;5072425;28;19916;-34
2023/05/19 09:32:03;;;;;;;;;;;17.20;58.20;;;;;;5072435;28;19997;-34
2023/05/19 09:34:28;;;;;;;;;;;17.20;57.80;;;;;;5072277;28;20010;-35
2023/05/19 09:36:54;;;;;;;;;;;17.30;58.10;;;;;;5072218;28;19951;-34
2023/05/19 09:39:20;;;;;;;;;;;17.40;57.40;;;;;;5072361;28;19916;-34
2023/05/19 09:41:46;;;;;;;;;;;17.50;57.30;;;;;;5072072;28;20384;-35
2023/05/19 09:44:32;;;;;;;;;;;17.50;56.60;;;;;;5072112;28;19962;-34
2023/05/19 09:46:58;;;;;;;;;;;17.60;57.00;;;;;;5071905;28;20023;-34
2023/05/19 09:49:25;;;;;;;;;;;17.70;54.50;;;;;;5072000;28;19956;-33
2023/05/19 09:51:54;;;;;;;;;;;17.60;54.80;;;;;;5072059;28;19919;-34
2023/05/19 09:54:23;;;;;;;;;;;17.60;54.80;;;;;;5072034;28;19919;-33
2023/05/19 09:56:59;;;;;;;;;;;17.60;54.60;;;;;;5072147;28;19920;-34
2023/05/19 09:59:25;;;;;;;;;;;17.50;55.10;;;;;;5071864;28;19920;-34
2023/05/19 10:01:57;;;;;;;;;;;17.60;55.10;;;;;;5071971;28;19912;-34
2023/05/19 10:04:23;;;;;;;;;;;17.60;55.20;;;;;;5071887;28;19920;-34
2023/05/19 10:06:52;;;;;;;;;;;17.70;55.00;;;;;;5072022;28;19912;-35
2023/05/19 10:09:21;;;;;;;;;;;17.70;55.00;;;;;;5071986;28;20003;-34
2023/05/19 10:11:46;;;;;;;;;;;17.70;55.10;;;;;;5071775;28;20008;-35
2023/05/19 10:14:12;;;;;;;;;;;17.70;54.40;;;;;;5071812;28;19977;-34
2023/05/19 10:16:38;;;;;;;;;;;17.70;54.80;;;;;;5071772;28;19919;-35
2023/05/19 10:19:04;;;;;;;;;;;17.70;54.70;;;;;;5071751;28;19913;-35
2023/05/19 10:21:29;;;;;;;;;;;17.80;54.90;;;;;;5071604;28;19913;-35
2023/05/19 10:23:55;;;;;;;;;;;17.90;54.70;;;;;;5071800;28;20396;-34
2023/05/19 10:26:21;;;;;;;;;;;17.90;54.70;;;;;;5071854;28;20014;-34
2023/05/19 10:28:47;;;;;;;;;;;18.00;54.80;;;;;;5071566;28;19912;-35
2023/05/19 10:31:15;;;;;;;;;;;18.00;55.00;;;;;;5071506;28;19962;-35
2023/05/19 10:33:50;;;;;;;;;;;18.00;54.90;;;;;;5071563;28;19919;-34
2023/05/19 10:36:24;;;;;;;;;;;18.10;55.20;;;;;;5071997;28;19912;-35
2023/05/19 10:39:11;;;;;;;;;;;18.20;53.80;;;;;;5076068;28;19982;-34
2023/05/19 10:41:45;;;;;;;;;;;18.20;53.80;;;;;;5075679;28;20133;-35
2023/05/19 10:44:21;;;;;;;;;;;18.20;53.90;;;;;;5075597;28;19935;-34
2023/05/19 10:46:47;;;;;;;;;;;18.20;54.10;;;;;;5075544;28;20367;-34
2023/05/19 10:49:22;;;;;;;;;;;18.20;54.10;;;;;;5075614;28;19964;-33
2023/05/19 10:51:47;;;;;;;;;;;18.20;54.10;;;;;;5075476;28;19923;-33
2023/05/19 10:54:16;;;;;;;;;;;18.20;54.10;;;;;;5075453;28;20347;-35
2023/05/19 10:56:42;;;;;;;;;;;18.20;54.00;;;;;;5074027;28;19958;-33
2023/05/19 10:59:28;;;;;;;;;;;18.20;53.90;;;;;;5075466;28;19913;-35
2023/05/19 11:01:53;;;;;;;;;;;18.30;53.50;;;;;;5075200;28;19912;-34
2023/05/19 11:04:37;;;;;;;;;;;18.30;53.60;;;;;;5075057;28;19919;-35
2023/05/19 11:07:03;;;;;;;;;;;18.40;52.70;;;;;;5075485;28;19913;-33
2023/05/19 11:09:32;;;;;;;;;;;18.40;51.60;;;;;;5074952;28;19962;-35
2023/05/19 11:12:02;;;;;;;;;;;18.40;50.60;;;;;;5075192;28;19928;-35
2023/05/19 11:14:27;;;;;;;;;;;18.40;50.50;;;;;;5075113;28;19912;-35
2023/05/19 11:16:56;;;;;;;;;;;18.40;48.10;;;;;;5075049;28;20007;-34
2023/05/19 11:19:26;;;;;;;;;;;18.40;49.90;;;;;;5074675;28;20003;-34
2023/05/19 11:21:54;;;;;;;;;;;18.50;49.80;;;;;;5073568;28;19973;-34
2023/05/19 11:24:41;;;;;;;;;;;18.50;50.30;;;;;;5074734;28;19947;-35
2023/05/19 11:27:37;;;;;;;;;;;18.60;50.30;;;;;;5074700;28;20406;-35
2023/05/19 11:30:06;;;;;;;;;;;18.70;48.60;;;;;;5074529;28;19920;-34
2023/05/19 11:32:33;;;;;;;;;;;18.80;49.80;;;;;;5074574;28;19916;-33
2023/05/19 11:34:59;;;;;;;;;;;18.80;49.70;;;;;;5074777;28;20312;-35
2023/05/19 11:37:25;;;;;;;;;;;18.90;49.80;;;;;;5074486;28;19947;-34
2023/05/19 11:39:51;;;;;;;;;;;19.00;49.80;;;;;;5074401;28;20346;-34
2023/05/19 11:42:17;;;;;;;;;;;19.10;49.10;;;;;;5074641;28;20440;-35
2023/05/19 11:44:45;;;;;;;;;;;19.20;49.80;;;;;;5074232;28;20041;-34
2023/05/19 11:47:11;;;;;;;;;;;19.30;49.90;;;;;;5074537;28;19913;-35
2023/05/19 11:49:36;;;;;;;;;;;19.40;50.10;;;;;;5073644;28;19999;-41
2023/05/19 11:52:03;;;;;;;;;;;19.50;50.00;;;;;;5074364;28;19944;-35
2023/05/19 11:54:31;;;;;;;;;;;19.70;50.00;;;;;;5074355;28;19913;-35
2023/05/19 11:56:59;;;;;;;;;;;19.80;49.90;;;;;;5074241;28;19975;-35
2023/05/19 11:59:29;;;;;;;;;;;19.80;47.80;;;;;;5074188;28;19919;-34
2023/05/19 12:01:55;;;;;;;;;;;19.80;48.40;;;;;;5074175;28;19912;-38
2023/05/19 12:04:20;;;;;;;;;;;19.80;47.30;;;;;;5074033;28;19940;-35
2023/05/19 12:06:47;;;;;;;;;;;19.80;47.80;;;;;;5074417;28;19920;-34
2023/05/19 12:09:13;;;;;;;;;;;19.90;48.20;;;;;;5073997;28;19987;-35
2023/05/19 12:11:38;;;;;;;;;;;20.00;48.30;;;;;;5074030;28;20001;-35
2023/05/19 12:14:04;;;;;;;;;;;20.20;48.50;;;;;;5073928;28;19912;-35
2023/05/19 12:16:33;;;;;;;;;;;20.30;47.50;;;;;;5073850;28;20373;-36
2023/05/19 12:18:59;;;;;;;;;;;20.30;47.30;;;;;;5073676;28;20428;-35
2023/05/19 12:21:25;;;;;;;;;;;20.30;47.10;;;;;;5072351;28;19999;-35
2023/05/19 12:23:51;;;;;;;;;;;20.40;47.50;;;;;;5073740;28;19916;-34
2023/05/19 12:26:18;;;;;;;;;;;20.60;48.00;;;;;;5073559;28;19917;-35
2023/05/19 12:28:47;;;;;;;;;;;20.70;47.90;;;;;;5072271;28;19912;-34
2023/05/19 12:31:12;;;;;;;;;;;20.90;47.90;;;;;;5073521;28;19924;-39
2023/05/19 12:33:38;;;;;;;;;;;21.00;47.80;;;;;;5072291;28;19912;-43
2023/05/19 12:36:04;;;;;;;;;;;21.10;47.90;;;;;;5073347;28;19913;-35
2023/05/19 12:38:29;;;;;;;;;;;21.30;47.90;;;;;;5073432;28;19936;-36
2023/05/19 12:40:57;;;;;;;;;;;21.40;47.90;;;;;;5073317;28;19912;-34
2023/05/19 12:43:23;;;;;;;;;;;21.60;48.20;;;;;;5073350;28;20391;-35
2023/05/19 12:45:49;;;;;;;;;;;21.80;47.30;;;;;;5073099;28;19920;-36
2023/05/19 12:48:15;;;;;;;;;;;21.80;46.40;;;;;;5073082;28;19920;-34
2023/05/19 12:50:41;;;;;;;;;;;21.80;46.70;;;;;;5073188;28;19966;-35
2023/05/19 12:53:07;;;;;;;;;;;21.90;46.80;;;;;;5073023;28;19916;-31
2023/05/19 12:55:37;;;;;;;;;;;22.00;46.50;;;;;;5073096;28;19913;-31
2023/05/19 12:58:04;;;;;;;;;;;22.00;46.60;;;;;;5072963;28;19919;-30
2023/05/19 13:00:31;;;;;;;;;;;21.90;46.20;;;;;;5071844;28;20328;-29
2023/05/19 13:03:00;;;;;;;;;;;21.70;46.60;;;;;;5073055;28;20283;-32
2023/05/19 13:05:27;;;;;;;;;;;21.60;46.80;;;;;;5072854;28;20324;-29
2023/05/19 13:07:56;;;;;;;;;;;21.60;47.20;;;;;;5072933;28;19947;-28
2023/05/19 13:10:21;;;;;;;;;;;21.80;47.30;;;;;;5072629;28;19960;-29
2023/05/19 13:12:47;;;;;;;;;;;21.90;47.10;;;;;;5072832;28;19974;-31
2023/05/19 13:15:12;;;;;;;;;;;22.10;46.90;;;;;;5072523;28;19958;-40
2023/05/19 13:17:38;;;;;;;;;;;22.30;45.70;;;;;;5072522;28;19913;-31
2023/05/19 13:20:04;;;;;;;;;;;22.30;45.90;;;;;;5072866;28;20368;-29
2023/05/19 13:22:35;;;;;;;;;;;22.20;43.70;;;;;;5061348;27;1971202;-32
2023/05/19 13:25:01;;;;;;;;;;;22.10;44.80;;;;;;5130096;28;20264;-31
2023/05/19 13:27:26;;;;;;;;;;;22.10;45.10;;;;;;5129934;28;19951;-34
2023/05/19 13:29:52;;;;;;;;;;;21.90;44.90;;;;;;5130207;28;19912;-30
2023/05/19 13:32:17;;;;;;;;;;;21.80;44.50;;;;;;5129879;28;19934;-32
2023/05/19 13:34:42;;;;;;;;;;;21.80;44.60;;;;;;5129982;28;20210;-33
2023/05/19 13:37:08;;;;;;;;;;;21.90;45.00;;;;;;5129964;28;19922;-36
2023/05/19 13:39:34;;;;;;;;;;;21.80;44.80;;;;;;5129922;28;20363;-33
2023/05/19 13:41:59;;;;;;;;;;;21.60;45.00;;;;;;5130042;28;19916;-33
2023/05/19 13:44:25;;;;;;;;;;;21.50;45.60;;;;;;5129757;28;20485;-30
2023/05/19 13:46:50;;;;;;;;;;;21.60;45.80;;;;;;5129679;28;20116;-32
2023/05/19 13:49:16;;;;;;;;;;;21.90;45.90;;;;;;5111236;28;20350;-36
2023/05/19 13:51:42;;;;;;;;;;;22.10;45.20;;;;;;5129607;28;19926;-34
2023/05/19 13:54:08;;;;;;;;;;;22.20;45.30;;;;;;5129961;28;19911;-30
2023/05/19 13:56:34;;;;;;;;;;;22.40;44.20;;;;;;5129394;28;19912;-34
2023/05/19 13:58:59;;;;;;;;;;;22.40;44.30;;;;;;5129411;28;19972;-35
2023/05/19 14:01:25;;;;;;;;;;;22.20;43.10;;;;;;5129345;28;19920;-34
2023/05/19 14:03:51;;;;;;;;;;;22.00;44.00;;;;;;5129447;28;19939;-34
2023/05/19 14:06:16;;;;;;;;;;;21.80;44.80;;;;;;5128998;28;20411;-35
2023/05/19 14:08:42;;;;;;;;;;;21.80;44.60;;;;;;5129255;28;19912;-30
2023/05/19 14:11:07;;;;;;;;;;;21.90;44.50;;;;;;5106384;28;19935;-32
2023/05/19 14:13:33;;;;;;;;;;;22.10;43.70;;;;;;5108574;28;19912;-37
2023/05/19 14:15:58;;;;;;;;;;;22.20;44.00;;;;;;5108194;28;19916;-36